Terminal Aerodrome Forecast
Issued by NWS

Home | Current Version | Previous Version | Text Only | Print | Product List | Glossary On
Versions: 1 2 3 4 5 6 7 8 9 10 11 12 13 14 15
000
FTAK31 PAJN 041700
TAFAKT
TAF
PAKT 041726Z 0418/0518 33010KT P6SM BKN100
     FM050000 33012KT P6SM VCSH SCT050 SCT100
     FM050600 33008KT P6SM FEW080 SCT100
     FM051200 VRB03KT P6SM SCT100
      AMD LTD TO CLD VIS AND WIND 0506/0515=

USA.gov is the U.S. government's official web portal to all federal, state and local government web resources and services.